Time;durP1;ratioP1;P1;durP2;ratioP2;P2;SDS_P1;SDS_P2;PMS_P1;PMS_P2;Temp;Humidity;BMP_temperature;BMP_pressure;BME280_temperature;BME280_humidity;BME280_pressure;Samples;Min_cycle;Max_cycle;Signal;HPM_P1;HPM_P2
2023/08/27 00:02:39;;;;;;;10.10;9.30;;;19.40;99.90;;;;;;10437572;28;20238;-82
2023/08/27 00:07:44;;;;;;;9.57;8.87;;;19.40;99.90;;;;;;10435033;28;20213;-82
2023/08/27 00:12:58;;;;;;;10.17;9.43;;;19.40;99.90;;;;;;10423284;28;20245;-80
2023/08/27 00:18:09;;;;;;;14.37;8.53;;;19.40;99.90;;;;;;10433432;28;20252;-82
2023/08/27 00:23:12;;;;;;;11.30;10.30;;;19.50;99.90;;;;;;10412184;28;20227;-80
2023/08/27 00:28:17;;;;;;;14.13;10.10;;;19.40;99.90;;;;;;10419848;28;20259;-80
2023/08/27 00:33:30;;;;;;;10.73;9.73;;;19.40;99.90;;;;;;10375948;28;20239;-82
2023/08/27 00:38:35;;;;;;;10.53;9.73;;;19.50;99.90;;;;;;10417219;28;20226;-81
2023/08/27 00:43:40;;;;;;;9.03;8.33;;;19.50;99.90;;;;;;10398855;28;20288;-80
2023/08/27 00:48:46;;;;;;;10.60;9.60;;;19.60;99.90;;;;;;10441817;28;20202;-80
2023/08/27 00:53:49;;;;;;;10.50;9.60;;;19.60;99.90;;;;;;10384611;28;20310;-82
2023/08/27 00:58:51;;;;;;;10.93;9.93;;;19.60;99.90;;;;;;10384894;28;20223;-80
2023/08/27 01:03:55;;;;;;;9.23;8.43;;;19.60;99.90;;;;;;10378810;28;20241;-81
2023/08/27 01:09:03;;;;;;;10.50;9.60;;;19.60;99.90;;;;;;10410933;28;20655;-81
2023/08/27 01:14:08;;;;;;;12.10;11.00;;;19.70;99.90;;;;;;10396925;28;20246;-82
2023/08/27 01:19:14;;;;;;;14.50;13.27;;;19.70;99.90;;;;;;10393060;28;20310;-80
2023/08/27 01:24:18;;;;;;;12.77;11.47;;;19.80;99.90;;;;;;10407601;28;20285;-81
2023/08/27 01:29:27;;;;;;;11.87;10.93;;;19.80;99.90;;;;;;10395048;28;20202;-82
2023/08/27 01:34:30;;;;;;;10.30;9.10;;;19.90;99.90;;;;;;10389905;28;20231;-81
2023/08/27 01:39:33;;;;;;;11.10;10.00;;;19.90;99.90;;;;;;10392350;28;20241;-80
2023/08/27 01:44:36;;;;;;;12.57;11.47;;;19.90;99.90;;;;;;10382493;28;20270;-80
2023/08/27 01:49:38;;;;;;;12.00;11.10;;;19.90;99.90;;;;;;10384792;28;20658;-81
2023/08/27 01:54:43;;;;;;;11.00;9.90;;;20.00;99.90;;;;;;10400514;28;20311;-81
2023/08/27 01:59:45;;;;;;;10.93;9.93;;;20.00;99.90;;;;;;10381688;28;20226;-81
2023/08/27 02:04:47;;;;;;;9.90;9.00;;;20.00;99.90;;;;;;10376895;28;20237;-82
2023/08/27 02:09:50;;;;;;;10.37;9.40;;;20.00;99.90;;;;;;10380049;28;20199;-82
2023/08/27 02:14:53;;;;;;;9.77;8.97;;;20.00;99.90;;;;;;10390669;28;20233;-83
2023/08/27 02:19:55;;;;;;;9.93;9.03;;;20.00;99.90;;;;;;10412603;28;20223;-81
2023/08/27 02:24:58;;;;;;;15.43;10.63;;;20.00;99.90;;;;;;10374170;28;20222;-81
2023/08/27 02:30:00;;;;;;;10.83;9.93;;;20.10;99.90;;;;;;10422865;28;20339;-81
2023/08/27 02:35:03;;;;;;;11.23;10.17;;;20.10;99.90;;;;;;10394063;28;20239;-83
2023/08/27 02:40:07;;;;;;;10.90;9.90;;;20.10;99.90;;;;;;10356603;28;20272;-81
2023/08/27 02:45:10;;;;;;;10.53;9.63;;;20.10;99.90;;;;;;10413677;28;20699;-82
2023/08/27 02:50:12;;;;;;;9.30;8.60;;;20.00;99.90;;;;;;10365990;28;20219;-82
2023/08/27 02:55:16;;;;;;;9.97;9.17;;;20.00;99.90;;;;;;10373092;28;20673;-80
2023/08/27 03:00:18;;;;;;;10.17;9.27;;;20.00;99.90;;;;;;10402234;28;20215;-81
2023/08/27 03:05:21;;;;;;;12.87;9.50;;;19.90;99.90;;;;;;10419365;28;20228;-81
2023/08/27 03:10:24;;;;;;;11.07;10.17;;;19.90;99.90;;;;;;10395220;28;20191;-80
2023/08/27 03:15:26;;;;;;;11.33;10.43;;;19.90;99.90;;;;;;10382886;28;20277;-81
2023/08/27 03:20:29;;;;;;;10.40;9.60;;;19.80;99.90;;;;;;10412113;28;20215;-82
2023/08/27 03:25:33;;;;;;;11.17;10.07;;;19.80;99.90;;;;;;10366518;28;20199;-81
2023/08/27 03:30:35;;;;;;;11.40;10.50;;;19.70;99.90;;;;;;10413256;28;20202;-81
2023/08/27 03:35:37;;;;;;;11.63;10.73;;;19.60;99.90;;;;;;10402327;28;20329;-80
2023/08/27 03:40:48;;;;;;;12.97;11.97;;;19.60;99.90;;;;;;10412196;28;20765;-82
2023/08/27 03:45:50;;;;;;;14.63;13.50;;;19.50;99.90;;;;;;10383295;28;20206;-80
2023/08/27 03:50:52;;;;;;;13.87;12.77;;;19.40;99.90;;;;;;10410497;28;20314;-81
2023/08/27 03:55:56;;;;;;;14.30;13.10;;;19.30;99.90;;;;;;10363296;28;20615;-82
2023/08/27 04:00:58;;;;;;;14.93;13.63;;;19.20;99.90;;;;;;10393746;28;20686;-81
2023/08/27 04:06:00;;;;;;;16.00;14.90;;;19.20;99.90;;;;;;10411821;28;20286;-80
2023/08/27 04:11:04;;;;;;;14.43;13.27;;;19.20;99.90;;;;;;10379234;28;20329;-80
2023/08/27 04:16:07;;;;;;;14.50;13.40;;;19.10;99.90;;;;;;10413259;28;20245;-81
2023/08/27 04:21:10;;;;;;;14.70;13.60;;;19.10;99.90;;;;;;10373797;28;20322;-81
2023/08/27 04:26:13;;;;;;;13.43;12.53;;;19.10;99.90;;;;;;10378607;28;20205;-81
2023/08/27 04:31:16;;;;;;;13.47;12.57;;;19.10;99.90;;;;;;10395203;28;20234;-81
2023/08/27 04:36:18;;;;;;;13.50;12.40;;;19.00;99.90;;;;;;10398341;28;20227;-81
2023/08/27 04:41:42;;;;;;;12.90;11.97;;;19.00;99.90;;;;;;10402868;22;20631;-82
2023/08/27 04:46:58;;;;;;;12.40;11.40;;;19.00;99.90;;;;;;10501799;28;20271;-80
2023/08/27 04:52:16;;;;;;;15.63;14.20;;;18.90;99.90;;;;;;10504589;28;20216;-81
2023/08/27 04:57:28;;;;;;;15.80;14.47;;;18.90;99.90;;;;;;10507464;28;20279;-82
2023/08/27 05:03:35;;;;;;;;;;;;;;;;;;;;;
2023/08/27 05:15:20;;;;;;;14.67;13.67;;;19.00;99.90;;;;;;10541015;22;20726;-81
2023/08/27 05:20:22;;;;;;;13.70;12.80;;;19.10;99.90;;;;;;10521367;28;20580;-81
2023/08/27 05:25:24;;;;;;;14.07;13.17;;;19.10;99.90;;;;;;10532837;28;20228;-81
2023/08/27 05:30:29;;;;;;;12.93;12.10;;;19.00;99.90;;;;;;10528093;28;20200;-81
2023/08/27 05:35:31;;;;;;;12.93;12.13;;;19.10;99.90;;;;;;10545370;28;20224;-81
2023/08/27 05:40:33;;;;;;;12.67;11.87;;;19.00;99.90;;;;;;10527041;28;20703;-81
2023/08/27 05:45:37;;;;;;;11.73;10.97;;;19.00;99.90;;;;;;10570054;28;20224;-81
2023/08/27 05:50:40;;;;;;;13.20;12.40;;;19.10;99.90;;;;;;10563727;28;20208;-81
2023/08/27 05:55:44;;;;;;;12.03;11.33;;;19.10;99.90;;;;;;10568034;28;20209;-80
2023/08/27 06:00:47;;;;;;;12.80;12.10;;;19.20;99.90;;;;;;10578743;28;20208;-81
2023/08/27 06:05:50;;;;;;;12.13;11.23;;;19.30;99.90;;;;;;10583678;28;20197;-81
2023/08/27 06:10:52;;;;;;;10.80;10.20;;;19.40;99.90;;;;;;10568378;28;20196;-82
2023/08/27 06:15:56;;;;;;;11.00;10.20;;;19.50;99.90;;;;;;10606719;28;20208;-80
2023/08/27 06:20:58;;;;;;;10.73;9.87;;;19.50;99.90;;;;;;10577834;28;20217;-81
2023/08/27 06:26:04;;;;;;;10.20;9.50;;;19.60;99.90;;;;;;10591019;28;20224;-82
2023/08/27 06:31:07;;;;;;;10.10;9.60;;;19.70;99.90;;;;;;10584146;28;20196;-81
2023/08/27 06:36:09;;;;;;;9.60;9.00;;;19.80;99.90;;;;;;10571732;28;20211;-81
2023/08/27 06:41:12;;;;;;;8.90;8.40;;;19.80;99.90;;;;;;10578154;28;20291;-81
2023/08/27 06:46:15;;;;;;;9.17;8.47;;;19.90;99.90;;;;;;10566515;28;20289;-81
2023/08/27 06:51:18;;;;;;;7.23;6.73;;;20.00;99.90;;;;;;10576868;28;20219;-81
2023/08/27 06:56:21;;;;;;;6.53;6.03;;;20.10;99.90;;;;;;10547542;28;20291;-81
2023/08/27 07:01:24;;;;;;;6.40;6.00;;;20.20;99.90;;;;;;10554249;28;20232;-82
2023/08/27 07:06:27;;;;;;;6.37;5.87;;;20.20;99.90;;;;;;10574506;28;20220;-81
2023/08/27 07:11:30;;;;;;;5.63;5.33;;;20.20;99.90;;;;;;10547488;28;20220;-82
2023/08/27 07:16:33;;;;;;;6.07;5.67;;;20.20;99.90;;;;;;10574453;28;20206;-82
2023/08/27 07:21:35;;;;;;;6.00;5.60;;;20.30;99.90;;;;;;10582277;28;20220;-81
2023/08/27 07:26:37;;;;;;;5.30;5.00;;;20.30;99.90;;;;;;10573486;28;20215;-81
2023/08/27 07:31:41;;;;;;;6.73;6.07;;;20.30;99.90;;;;;;10565990;28;20201;-81
2023/08/27 07:36:43;;;;;;;4.90;4.57;;;20.50;99.90;;;;;;10570663;28;20216;-81
2023/08/27 07:41:45;;;;;;;3.80;3.63;;;20.60;99.90;;;;;;10547584;28;20236;-81
2023/08/27 07:46:48;;;;;;;4.50;4.17;;;20.80;99.90;;;;;;10571911;28;20195;-82
2023/08/27 07:51:50;;;;;;;4.07;3.87;;;20.80;99.90;;;;;;10563060;28;20212;-81
2023/08/27 07:56:53;;;;;;;3.23;3.03;;;20.90;99.90;;;;;;10568330;28;20204;-80
2023/08/27 08:01:56;;;;;;;4.07;3.77;;;20.90;99.90;;;;;;10567158;28;20295;-81
2023/08/27 08:06:59;;;;;;;3.60;3.50;;;20.80;99.90;;;;;;10574520;28;20207;-80
2023/08/27 08:12:01;;;;;;;3.30;3.10;;;20.70;99.90;;;;;;10581409;28;20232;-80
2023/08/27 08:17:05;;;;;;;3.20;2.90;;;20.70;99.90;;;;;;10566653;28;20242;-81
2023/08/27 08:22:07;;;;;;;5.20;2.87;;;20.70;99.90;;;;;;10581503;28;20228;-79
2023/08/27 08:27:09;;;;;;;3.33;3.13;;;20.70;99.90;;;;;;10546372;28;20552;-79
2023/08/27 08:32:12;;;;;;;2.53;2.43;;;20.70;99.90;;;;;;10564992;28;20228;-80
2023/08/27 08:37:14;;;;;;;2.80;2.60;;;20.80;99.90;;;;;;10563680;28;20601;-79
2023/08/27 08:42:27;;;;;;;2.67;2.57;;;20.80;99.90;;;;;;10547896;28;20220;-79
2023/08/27 08:47:31;;;;;;;2.57;2.40;;;20.90;99.90;;;;;;10563767;28;20218;-78
2023/08/27 08:52:37;;;;;;;2.60;2.50;;;20.80;99.90;;;;;;10562278;28;20246;-79
2023/08/27 08:57:44;;;;;;;3.50;3.20;;;20.80;99.90;;;;;;10558418;28;20206;-79
2023/08/27 09:02:48;;;;;;;2.80;2.70;;;20.90;99.90;;;;;;10559873;28;20222;-79
2023/08/27 09:07:51;;;;;;;3.33;2.43;;;21.10;99.90;;;;;;10559732;28;20223;-79
2023/08/27 09:12:56;;;;;;;2.73;2.57;;;21.10;99.90;;;;;;10558318;28;20314;-79
2023/08/27 09:17:59;;;;;;;2.47;2.37;;;21.10;99.90;;;;;;10561955;28;20645;-79
2023/08/27 09:23:02;;;;;;;4.27;2.83;;;21.10;99.90;;;;;;10560333;28;20228;-79
2023/08/27 09:28:05;;;;;;;2.80;2.60;;;21.20;99.90;;;;;;10546545;28;20559;-79
2023/08/27 09:33:08;;;;;;;2.33;2.20;;;21.20;99.90;;;;;;10544108;28;20216;-79
2023/08/27 09:38:16;;;;;;;2.40;2.30;;;21.30;99.90;;;;;;10568836;28;20631;-80
2023/08/27 09:43:18;;;;;;;3.87;2.33;;;21.60;99.90;;;;;;10565528;28;20232;-80
2023/08/27 09:48:25;;;;;;;2.53;2.33;;;21.90;99.90;;;;;;10570878;28;20205;-79
2023/08/27 09:53:28;;;;;;;3.40;2.17;;;22.20;99.90;;;;;;10569099;28;20223;-80
2023/08/27 09:58:30;;;;;;;2.97;2.77;;;22.50;99.90;;;;;;10584379;28;20196;-80
2023/08/27 10:03:33;;;;;;;2.40;2.20;;;22.70;99.90;;;;;;10575635;28;20238;-80
2023/08/27 10:08:46;;;;;;;2.30;2.20;;;22.80;99.90;;;;;;10553529;28;20204;-81
2023/08/27 10:13:49;;;;;;;2.50;2.27;;;22.80;99.90;;;;;;10576380;28;20734;-80
2023/08/27 10:18:53;;;;;;;2.53;2.43;;;22.80;99.90;;;;;;10554552;28;20648;-80
2023/08/27 10:23:56;;;;;;;3.23;3.03;;;22.90;99.90;;;;;;10553931;28;20727;-79
2023/08/27 10:29:00;;;;;;;3.40;3.20;;;23.00;99.90;;;;;;10569966;28;20238;-80
2023/08/27 10:34:05;;;;;;;2.33;2.23;;;23.20;99.90;;;;;;10561218;28;20222;-79
2023/08/27 10:39:08;;;;;;;2.20;2.10;;;23.30;99.90;;;;;;10564098;28;20238;-80
2023/08/27 10:44:10;;;;;;;1.93;1.83;;;23.40;99.90;;;;;;10562413;28;20221;-79
2023/08/27 10:49:17;;;;;;;2.23;2.13;;;23.50;99.90;;;;;;10560488;28;20213;-80
2023/08/27 10:54:26;;;;;;;3.40;2.40;;;23.60;99.90;;;;;;10558902;28;20287;-80
2023/08/27 10:59:30;;;;;;;2.60;2.40;;;23.60;99.90;;;;;;10557744;28;20262;-79
2023/08/27 11:04:36;;;;;;;5.37;3.43;;;23.50;99.90;;;;;;10559047;28;20238;-79
2023/08/27 11:09:47;;;;;;;2.73;2.57;;;23.50;99.90;;;;;;10559449;28;20660;-80
2023/08/27 11:15:11;;;;;;;2.63;2.43;;;23.60;99.90;;;;;;10534151;22;20340;-84
2023/08/27 11:48:05;;;;;;;4.40;4.00;;;23.80;99.90;;;;;;10277017;28;20215;-84
2023/08/27 11:53:21;;;;;;;2.50;2.40;;;23.60;99.90;;;;;;10454624;28;20631;-85
2023/08/27 12:04:52;;;;;;;;;;;;;;;;;;;;;
2023/08/27 12:10:17;;;;;;;2.80;2.60;;;23.30;99.90;;;;;;10456539;28;20275;-86
2023/08/27 12:36:00;;;;;;;4.00;2.80;;;23.00;99.90;;;;;;10339793;28;20222;-86
2023/08/27 12:41:34;;;;;;;2.70;2.50;;;22.90;99.90;;;;;;10455684;28;20270;-85
2023/08/27 12:47:08;;;;;;;2.90;2.70;;;22.80;99.90;;;;;;10453950;28;20217;-85
2023/08/27 12:53:05;;;;;;;3.33;3.00;;;22.90;99.90;;;;;;10455900;28;20221;-84
2023/08/27 12:58:37;;;;;;;2.50;2.40;;;23.00;99.90;;;;;;10441846;28;20206;-86
2023/08/27 13:11:11;;;;;;;3.50;3.20;;;23.10;99.90;;;;;;10272048;28;20483;-84
2023/08/27 13:16:47;;;;;;;3.27;3.07;;;23.30;99.90;;;;;;10386152;28;20297;-85
2023/08/27 13:22:01;;;;;;;3.10;2.90;;;23.40;99.90;;;;;;10452885;28;20648;-86
2023/08/27 13:27:12;;;;;;;3.37;3.13;;;23.40;99.90;;;;;;10435991;28;20206;-85
2023/08/27 13:37:54;;;;;;;3.53;2.70;;;23.60;99.90;;;;;;10401801;28;20799;-83
2023/08/27 13:43:23;;;;;;;2.80;2.60;;;23.50;99.90;;;;;;10460695;28;20229;-85
2023/08/27 13:48:46;;;;;;;2.20;2.10;;;23.50;99.90;;;;;;10458201;28;20216;-84
2023/08/27 13:53:49;;;;;;;3.30;2.40;;;23.50;99.90;;;;;;10449974;28;20229;-78
2023/08/27 13:58:52;;;;;;;3.53;2.80;;;23.20;99.90;;;;;;10460048;28;20206;-81
2023/08/27 14:03:54;;;;;;;3.43;3.13;;;23.00;99.90;;;;;;10456696;28;20225;-80
2023/08/27 14:08:56;;;;;;;4.77;2.80;;;22.80;99.90;;;;;;10465410;28;20205;-82
2023/08/27 14:14:00;;;;;;;7.40;6.70;;;22.70;99.90;;;;;;10472549;28;20222;-82
2023/08/27 14:19:02;;;;;;;3.50;3.20;;;22.70;99.90;;;;;;10473907;28;20206;-80
2023/08/27 14:24:04;;;;;;;4.10;3.80;;;22.50;99.90;;;;;;10466216;28;20287;-80
2023/08/27 14:29:09;;;;;;;3.30;3.10;;;22.40;99.90;;;;;;10471365;28;20982;-79
2023/08/27 14:34:11;;;;;;;3.27;2.57;;;22.00;99.90;;;;;;10472943;28;20719;-78
2023/08/27 14:39:13;;;;;;;2.77;2.57;;;21.60;99.90;;;;;;10466901;28;20217;-78
2023/08/27 14:44:17;;;;;;;3.40;3.17;;;21.30;99.90;;;;;;10459213;28;20705;-78
2023/08/27 14:49:19;;;;;;;4.40;4.10;;;21.10;99.90;;;;;;10460633;28;20233;-79
2023/08/27 14:54:21;;;;;;;5.50;5.10;;;20.70;99.90;;;;;;10459151;28;20260;-79
2023/08/27 14:59:39;;;;;;;5.30;5.00;;;20.30;99.90;;;;;;10459897;28;20264;-78
2023/08/27 15:04:41;;;;;;;7.00;6.50;;;19.90;99.90;;;;;;10460102;28;20316;-79
2023/08/27 15:09:45;;;;;;;7.00;6.60;;;19.70;99.90;;;;;;10459727;28;20210;-79
2023/08/27 15:14:48;;;;;;;8.07;7.30;;;19.50;99.90;;;;;;10456982;28;20225;-79
2023/08/27 15:19:51;;;;;;;8.00;7.50;;;19.40;99.90;;;;;;10457314;28;20210;-79
2023/08/27 15:24:53;;;;;;;9.33;8.63;;;19.40;99.90;;;;;;10456224;28;20249;-79
2023/08/27 15:29:56;;;;;;;9.03;8.50;;;19.30;99.90;;;;;;10457912;28;20217;-78
2023/08/27 15:35:00;;;;;;;9.70;9.10;;;19.20;99.90;;;;;;10454508;28;20639;-78
2023/08/27 15:40:04;;;;;;;10.60;9.90;;;19.10;99.90;;;;;;10454418;28;20621;-78
2023/08/27 15:45:09;;;;;;;10.20;9.60;;;19.10;99.90;;;;;;10457145;28;20218;-78
2023/08/27 15:50:11;;;;;;;10.90;10.40;;;19.00;99.90;;;;;;10460766;28;20804;-78
2023/08/27 15:55:13;;;;;;;10.63;9.83;;;18.90;99.90;;;;;;10456841;28;20257;-78
2023/08/27 16:00:18;;;;;;;9.73;9.03;;;18.90;99.90;;;;;;10453823;28;20576;-79
2023/08/27 16:05:20;;;;;;;11.60;10.97;;;18.80;99.90;;;;;;10454322;28;20293;-78
2023/08/27 16:10:22;;;;;;;12.53;11.77;;;18.80;99.90;;;;;;10455241;28;20256;-78
2023/08/27 16:15:25;;;;;;;12.90;12.10;;;18.70;99.90;;;;;;10457742;28;20218;-77
2023/08/27 16:20:27;;;;;;;12.03;11.33;;;18.70;99.90;;;;;;10457850;28;20218;-78
2023/08/27 16:25:30;;;;;;;11.73;11.10;;;18.80;99.90;;;;;;10458934;28;20222;-79
2023/08/27 16:30:33;;;;;;;11.50;10.90;;;18.80;99.90;;;;;;10456791;28;20202;-78
2023/08/27 16:35:35;;;;;;;11.70;11.10;;;18.80;99.90;;;;;;10456278;28;20230;-78
2023/08/27 16:40:39;;;;;;;12.20;11.40;;;18.90;99.90;;;;;;10453197;28;20229;-79
2023/08/27 16:45:44;;;;;;;10.63;9.90;;;18.90;99.90;;;;;;10449972;28;20661;-79
2023/08/27 16:50:46;;;;;;;10.00;9.40;;;19.00;99.90;;;;;;10456480;28;20240;-78
2023/08/27 16:55:48;;;;;;;9.77;8.93;;;19.00;99.90;;;;;;10453386;28;20218;-78
2023/08/27 17:00:52;;;;;;;9.07;8.67;;;19.10;99.90;;;;;;10453431;28;20222;-78
2023/08/27 17:05:57;;;;;;;8.53;7.90;;;19.10;99.90;;;;;;10455043;28;20676;-78
2023/08/27 17:10:59;;;;;;;8.80;8.40;;;19.10;99.90;;;;;;10452738;28;20198;-78
2023/08/27 17:16:02;;;;;;;8.80;8.00;;;19.10;99.90;;;;;;10504557;22;20312;-80
2023/08/27 17:21:04;;;;;;;7.43;7.03;;;19.10;99.90;;;;;;10496751;28;20224;-80
2023/08/27 17:26:07;;;;;;;8.33;7.87;;;19.10;99.90;;;;;;10500731;28;20228;-80
2023/08/27 17:31:10;;;;;;;7.33;6.73;;;19.10;99.90;;;;;;10498875;28;20201;-80
2023/08/27 17:36:12;;;;;;;6.50;6.10;;;19.10;99.90;;;;;;10497800;28;20227;-80
2023/08/27 17:41:16;;;;;;;7.70;7.30;;;19.10;99.90;;;;;;10497628;28;20217;-80
2023/08/27 17:46:19;;;;;;;6.57;6.17;;;19.10;99.90;;;;;;10504997;28;20228;-79
2023/08/27 17:51:21;;;;;;;6.40;5.90;;;19.10;99.90;;;;;;10507596;28;20620;-79
2023/08/27 17:56:24;;;;;;;5.83;5.33;;;19.00;99.90;;;;;;10502094;28;20252;-79
2023/08/27 18:01:27;;;;;;;5.80;5.40;;;18.90;99.90;;;;;;10497209;28;20240;-79
2023/08/27 18:06:31;;;;;;;6.10;5.80;;;18.90;99.90;;;;;;10477947;28;20221;-79
2023/08/27 18:11:34;;;;;;;6.07;5.67;;;18.70;99.90;;;;;;10500719;28;20212;-79
2023/08/27 18:16:37;;;;;;;5.80;5.50;;;18.70;99.90;;;;;;10512696;28;20229;-80
2023/08/27 18:21:41;;;;;;;7.17;5.53;;;18.60;99.90;;;;;;10504967;28;20214;-78
2023/08/27 18:26:43;;;;;;;6.57;6.10;;;18.60;99.90;;;;;;10497640;28;20225;-79
2023/08/27 18:31:46;;;;;;;8.60;6.93;;;18.60;99.90;;;;;;10497482;28;20197;-79
2023/08/27 18:36:48;;;;;;;6.93;6.43;;;18.60;99.90;;;;;;10497165;28;20236;-79
2023/08/27 18:41:50;;;;;;;5.40;5.00;;;18.60;99.90;;;;;;10496525;28;20260;-78
2023/08/27 18:46:54;;;;;;;5.10;4.70;;;18.60;99.90;;;;;;10500622;28;20205;-79
2023/08/27 18:51:58;;;;;;;6.67;5.40;;;18.70;99.90;;;;;;10492915;28;20236;-79
2023/08/27 18:57:00;;;;;;;6.53;6.03;;;18.70;99.90;;;;;;10499145;28;20292;-79
2023/08/27 19:02:05;;;;;;;5.87;5.37;;;18.70;99.90;;;;;;10498340;28;20225;-79
2023/08/27 19:07:07;;;;;;;6.77;6.37;;;18.70;99.90;;;;;;10497380;28;20245;-79
2023/08/27 19:12:09;;;;;;;6.30;5.90;;;18.60;99.90;;;;;;10497080;28;20254;-79
2023/08/27 19:17:12;;;;;;;6.87;6.47;;;18.70;99.90;;;;;;10496289;28;20251;-79
2023/08/27 19:22:14;;;;;;;5.87;5.47;;;18.70;99.90;;;;;;10497259;28;20225;-78
2023/08/27 19:27:17;;;;;;;5.50;5.10;;;18.80;99.90;;;;;;10498749;28;20229;-78
2023/08/27 19:32:20;;;;;;;4.80;4.60;;;18.70;99.90;;;;;;10497072;28;20217;-79
2023/08/27 19:37:22;;;;;;;5.00;4.70;;;18.80;99.90;;;;;;10491848;28;20212;-79
2023/08/27 19:42:24;;;;;;;5.20;4.90;;;18.70;99.90;;;;;;10476298;28;20231;-79
2023/08/27 19:47:28;;;;;;;5.97;5.43;;;18.70;99.90;;;;;;10503710;28;20303;-78
2023/08/27 19:52:30;;;;;;;5.40;4.90;;;18.70;99.90;;;;;;10494765;28;20217;-79
2023/08/27 19:57:33;;;;;;;4.80;4.50;;;18.60;99.90;;;;;;10499142;28;20332;-79
2023/08/27 20:02:36;;;;;;;4.60;4.40;;;18.70;99.90;;;;;;10495918;28;20278;-79
2023/08/27 20:07:38;;;;;;;5.30;4.90;;;18.60;99.90;;;;;;10494548;28;20236;-78
2023/08/27 20:12:40;;;;;;;4.63;4.43;;;18.60;99.90;;;;;;10495421;28;20786;-79
2023/08/27 20:17:43;;;;;;;4.20;3.90;;;18.60;99.90;;;;;;10495173;28;20205;-79
2023/08/27 20:22:46;;;;;;;4.53;3.60;;;18.70;99.90;;;;;;10496260;28;20229;-79
2023/08/27 20:27:48;;;;;;;4.00;3.80;;;18.70;99.90;;;;;;10496149;28;20572;-79
2023/08/27 20:32:51;;;;;;;4.87;4.47;;;18.70;99.90;;;;;;10494997;28;20583;-79
2023/08/27 20:37:53;;;;;;;4.40;4.00;;;18.70;99.90;;;;;;10496715;28;20579;-79
2023/08/27 20:42:56;;;;;;;3.90;3.70;;;18.70;99.90;;;;;;10497734;28;20256;-79
2023/08/27 20:48:00;;;;;;;3.97;3.63;;;18.60;99.90;;;;;;10500359;28;20245;-78
2023/08/27 20:53:02;;;;;;;4.23;3.93;;;18.70;99.90;;;;;;10501226;28;20220;-79
2023/08/27 20:58:04;;;;;;;5.67;3.60;;;18.60;99.90;;;;;;10503220;28;20481;-79
2023/08/27 21:03:08;;;;;;;3.73;3.40;;;18.60;99.90;;;;;;10498936;28;20278;-79
2023/08/27 21:08:11;;;;;;;3.50;3.30;;;18.60;99.90;;;;;;10503819;28;20201;-79
2023/08/27 21:13:13;;;;;;;4.17;3.97;;;18.60;99.90;;;;;;10497578;28;20229;-79
2023/08/27 21:18:16;;;;;;;3.67;3.47;;;18.50;99.90;;;;;;10498811;28;20216;-79
2023/08/27 21:23:18;;;;;;;4.10;3.80;;;18.50;99.90;;;;;;10501522;28;20278;-79
2023/08/27 21:28:21;;;;;;;3.80;3.50;;;18.50;99.90;;;;;;10503935;28;20531;-79
2023/08/27 21:33:24;;;;;;;3.40;3.20;;;18.50;99.90;;;;;;10500633;28;20223;-78
2023/08/27 21:38:26;;;;;;;3.33;3.13;;;18.60;99.90;;;;;;10501919;28;20201;-79
2023/08/27 21:43:28;;;;;;;3.83;3.53;;;18.50;99.90;;;;;;10501472;28;20247;-80
2023/08/27 21:48:32;;;;;;;4.40;4.10;;;18.50;99.90;;;;;;10503585;28;20201;-79
2023/08/27 21:53:34;;;;;;;2.93;2.77;;;18.50;99.90;;;;;;10502064;28;20234;-79
2023/08/27 21:58:36;;;;;;;3.60;3.40;;;18.50;99.90;;;;;;10501387;28;20292;-79
2023/08/27 22:03:39;;;;;;;3.23;3.03;;;18.50;99.90;;;;;;10496290;28;20278;-79
2023/08/27 22:08:43;;;;;;;3.80;3.40;;;18.50;99.90;;;;;;10497758;28;20243;-79
2023/08/27 22:13:45;;;;;;;3.87;3.60;;;18.50;99.90;;;;;;10495826;28;20280;-78
2023/08/27 22:18:48;;;;;;;3.67;3.47;;;18.50;99.90;;;;;;10496231;28;20239;-78
2023/08/27 22:23:50;;;;;;;4.20;3.53;;;18.50;99.90;;;;;;10496187;28;20233;-79
2023/08/27 22:28:52;;;;;;;3.87;3.57;;;18.50;99.90;;;;;;10502268;28;20205;-78
2023/08/27 22:33:56;;;;;;;3.67;3.47;;;18.50;99.90;;;;;;10504836;28;20256;-78
2023/08/27 22:38:58;;;;;;;4.30;4.00;;;18.50;99.90;;;;;;10505806;28;20207;-78
2023/08/27 22:44:00;;;;;;;4.63;3.00;;;18.50;99.90;;;;;;10504330;28;20225;-79
2023/08/27 22:49:04;;;;;;;4.00;3.70;;;18.50;99.90;;;;;;10504426;28;20205;-79
2023/08/27 22:54:07;;;;;;;3.40;3.20;;;18.40;99.90;;;;;;10500812;28;20255;-79
2023/08/27 22:59:09;;;;;;;3.30;3.10;;;18.40;99.90;;;;;;10501756;28;20197;-79
2023/08/27 23:04:13;;;;;;;4.10;3.77;;;18.40;99.90;;;;;;10500842;28;20275;-78
2023/08/27 23:09:15;;;;;;;3.80;3.50;;;18.40;99.90;;;;;;10496607;28;20205;-78
2023/08/27 23:14:17;;;;;;;3.00;2.80;;;18.40;99.90;;;;;;10501998;28;20692;-78
2023/08/27 23:19:20;;;;;;;6.63;3.90;;;18.40;99.90;;;;;;10500053;28;20201;-79
2023/08/27 23:24:22;;;;;;;3.40;3.10;;;18.40;99.90;;;;;;10496467;28;20235;-79
2023/08/27 23:29:25;;;;;;;3.53;3.23;;;18.30;99.90;;;;;;10496686;28;20722;-78
2023/08/27 23:34:28;;;;;;;3.27;3.07;;;18.20;99.90;;;;;;10499383;28;20224;-78
2023/08/27 23:39:31;;;;;;;5.73;3.33;;;18.20;99.90;;;;;;10502120;28;20221;-79
2023/08/27 23:44:33;;;;;;;3.27;3.07;;;18.20;99.90;;;;;;10499508;28;20256;-79
2023/08/27 23:49:36;;;;;;;3.87;3.60;;;18.20;99.90;;;;;;10497245;28;20292;-78
2023/08/27 23:54:38;;;;;;;3.33;3.00;;;18.10;99.90;;;;;;10498411;28;20271;-78
2023/08/27 23:59:40;;;;;;;3.80;3.60;;;18.10;99.90;;;;;;10501370;28;20201;-78
